Time;durP1;ratioP1;P1;durP2;ratioP2;P2;SDS_P1;SDS_P2;PMS_P1;PMS_P2;Temp;Humidity;BMP_temperature;BMP_pressure;BME280_temperature;BME280_humidity;BME280_pressure;Samples;Min_cycle;Max_cycle;Signal;HPM_P1;HPM_P2
2022/09/16 00:00:29;;;;;;;8.50;1.83;;;11.20;99.90;;;;;;5093499;28;20044;-48
2022/09/16 00:02:55;;;;;;;7.68;1.13;;;11.00;99.90;;;;;;5093573;28;20040;-48
2022/09/16 00:05:21;;;;;;;6.30;1.30;;;11.30;99.90;;;;;;5093436;28;20549;-52
2022/09/16 00:07:47;;;;;;;6.55;1.65;;;11.00;99.90;;;;;;5093359;28;20040;-57
2022/09/16 00:10:13;;;;;;;6.88;1.58;;;10.80;99.90;;;;;;5075274;28;20101;-49
2022/09/16 00:12:39;;;;;;;8.98;1.50;;;10.80;99.90;;;;;;5093130;28;20044;-52
2022/09/16 00:15:06;;;;;;;7.95;1.52;;;11.00;99.90;;;;;;5093484;28;20064;-49
2022/09/16 00:17:33;;;;;;;7.03;1.20;;;10.80;99.90;;;;;;5074990;28;20176;-47
2022/09/16 00:19:59;;;;;;;12.05;1.48;;;11.20;99.90;;;;;;5075196;28;20463;-46
2022/09/16 00:22:26;;;;;;;6.10;1.20;;;11.20;99.90;;;;;;5074908;28;20115;-46
2022/09/16 00:24:52;;;;;;;11.45;1.90;;;11.30;99.90;;;;;;5093125;28;20051;-47
2022/09/16 00:27:18;;;;;;;9.90;1.63;;;11.10;99.90;;;;;;5092894;28;20032;-49
2022/09/16 00:29:43;;;;;;;13.15;1.70;;;11.40;99.90;;;;;;5074772;28;20116;-48
2022/09/16 00:32:09;;;;;;;7.35;1.13;;;11.10;99.90;;;;;;5092687;28;20047;-46
2022/09/16 00:34:35;;;;;;;6.13;1.33;;;11.00;99.90;;;;;;5074923;28;20043;-48
2022/09/16 00:37:02;;;;;;;7.22;1.58;;;11.30;99.90;;;;;;5092868;28;20040;-47
2022/09/16 00:39:28;;;;;;;6.90;1.35;;;11.30;99.90;;;;;;5092745;28;20417;-51
2022/09/16 00:41:54;;;;;;;7.65;1.50;;;11.40;99.90;;;;;;5092549;28;20075;-45
2022/09/16 00:45:01;;;;;;;9.30;1.17;;;11.10;99.90;;;;;;5092863;28;20144;-51
2022/09/16 00:47:30;;;;;;;9.27;1.33;;;10.90;99.90;;;;;;5092664;28;20086;-49
2022/09/16 00:50:02;;;;;;;9.35;1.50;;;11.20;99.90;;;;;;5092574;28;20044;-47
2022/09/16 00:52:29;;;;;;;11.65;1.52;;;11.40;99.90;;;;;;5092244;28;20059;-50
2022/09/16 00:54:55;;;;;;;8.35;1.40;;;11.20;99.90;;;;;;5092647;28;20036;-49
2022/09/16 00:57:21;;;;;;;7.07;1.20;;;11.20;99.90;;;;;;5092487;28;20035;-46
2022/09/16 00:59:52;;;;;;;6.95;1.30;;;11.30;99.90;;;;;;5092540;28;20106;-46
2022/09/16 01:02:20;;;;;;;9.27;1.40;;;11.20;99.90;;;;;;5092414;28;20051;-46
2022/09/16 01:05:06;;;;;;;9.70;1.33;;;10.80;99.90;;;;;;5092162;28;20499;-50
2022/09/16 01:07:46;;;;;;;7.90;1.50;;;11.30;99.90;;;;;;5091923;28;20040;-46
2022/09/16 01:10:22;;;;;;;11.55;1.30;;;11.10;99.90;;;;;;5074319;28;20051;-46
2022/09/16 01:13:01;;;;;;;7.43;1.20;;;10.80;99.90;;;;;;5092138;28;20118;-45
2022/09/16 01:16:11;;;;;;;8.82;2.78;;;11.30;99.90;;;;;;5092215;28;20040;-46
2022/09/16 01:18:44;;;;;;;9.05;1.50;;;10.80;99.90;;;;;;5092421;28;20135;-47
2022/09/16 01:21:12;;;;;;;8.25;1.20;;;11.00;99.90;;;;;;5092032;28;20036;-48
2022/09/16 01:23:53;;;;;;;6.50;1.02;;;11.00;99.90;;;;;;5091939;28;20365;-45
2022/09/16 01:26:39;;;;;;;6.95;1.55;;;10.90;99.90;;;;;;5092025;28;20119;-49
2022/09/16 01:29:28;;;;;;;9.38;1.52;;;10.90;99.90;;;;;;5092084;28;20054;-46
2022/09/16 01:32:13;;;;;;;7.93;1.42;;;10.70;99.90;;;;;;5091902;28;20044;-47
2022/09/16 01:34:54;;;;;;;5.43;1.13;;;10.90;99.90;;;;;;5091986;28;20654;-46
2022/09/16 01:37:38;;;;;;;7.90;1.40;;;10.90;99.90;;;;;;5091776;28;20040;-50
2022/09/16 01:40:48;;;;;;;8.45;1.73;;;11.00;99.90;;;;;;5091714;28;20086;-47
2022/09/16 01:43:24;;;;;;;6.03;1.40;;;11.10;99.90;;;;;;5065772;28;20052;-61
2022/09/16 01:45:54;;;;;;;5.65;1.30;;;11.00;99.90;;;;;;5091940;28;20545;-61
2022/09/16 01:48:53;;;;;;;8.88;1.50;;;10.90;99.90;;;;;;5091847;28;20435;-61
2022/09/16 01:52:01;;;;;;;6.32;1.40;;;10.90;99.90;;;;;;5073480;28;20510;-60
2022/09/16 01:54:35;;;;;;;9.32;1.40;;;11.20;99.90;;;;;;5036140;28;20566;-61
2022/09/16 01:57:14;;;;;;;10.48;1.50;;;11.00;99.90;;;;;;5091775;28;20040;-61
2022/09/16 01:59:57;;;;;;;9.13;1.55;;;11.10;99.90;;;;;;5091970;28;20040;-61
2022/09/16 02:02:28;;;;;;;8.93;1.25;;;10.90;99.90;;;;;;5091787;28;20044;-60
2022/09/16 02:04:56;;;;;;;8.93;1.40;;;11.10;99.90;;;;;;5091662;28;20126;-60
2022/09/16 02:07:31;;;;;;;9.00;1.52;;;10.90;99.90;;;;;;5091603;28;20040;-61
2022/09/16 02:10:31;;;;;;;7.15;1.42;;;10.90;99.90;;;;;;5091767;28;20127;-61
2022/09/16 02:13:04;;;;;;;8.30;1.90;;;10.90;99.90;;;;;;5091742;28;20129;-61
2022/09/16 02:15:32;;;;;;;8.93;1.73;;;10.90;99.90;;;;;;5091614;28;20044;-61
2022/09/16 02:18:07;;;;;;;9.05;1.60;;;11.00;99.90;;;;;;5093885;28;20426;-60
2022/09/16 02:20:37;;;;;;;9.20;1.35;;;11.00;99.90;;;;;;5095575;28;20059;-61
2022/09/16 02:23:17;;;;;;;10.38;1.27;;;10.80;99.90;;;;;;5095254;28;20062;-60
2022/09/16 02:25:45;;;;;;;7.15;1.30;;;11.00;99.90;;;;;;5095205;28;20126;-60
2022/09/16 02:28:16;;;;;;;5.57;1.15;;;10.90;99.90;;;;;;5095177;28;20055;-61
2022/09/16 02:30:47;;;;;;;10.65;1.38;;;10.70;99.90;;;;;;5077514;28;20048;-61
2022/09/16 02:33:16;;;;;;;8.25;1.40;;;10.40;99.90;;;;;;5095111;28;20040;-60
2022/09/16 02:35:46;;;;;;;9.38;1.67;;;10.50;99.90;;;;;;5095132;28;20044;-60
2022/09/16 02:38:24;;;;;;;10.73;1.63;;;10.50;99.90;;;;;;5095019;28;20032;-61
2022/09/16 02:40:54;;;;;;;11.75;1.70;;;10.60;99.90;;;;;;5094886;28;20436;-61
2022/09/16 02:43:19;;;;;;;8.45;1.70;;;10.70;99.90;;;;;;5095162;28;20039;-61
2022/09/16 02:46:03;;;;;;;11.05;1.55;;;11.00;99.90;;;;;;5095268;28;20042;-61
2022/09/16 02:48:52;;;;;;;7.80;1.00;;;10.80;99.90;;;;;;5095101;28;20127;-61
2022/09/16 02:51:42;;;;;;;8.38;1.23;;;10.90;99.90;;;;;;5094832;28;20095;-59
2022/09/16 02:54:16;;;;;;;10.27;1.60;;;10.90;99.90;;;;;;5094815;28;20040;-61
2022/09/16 02:56:42;;;;;;;6.78;1.35;;;11.00;99.90;;;;;;5094700;28;20028;-61
2022/09/16 02:59:11;;;;;;;12.65;1.80;;;11.10;99.90;;;;;;5094570;28;20093;-61
2022/09/16 03:01:40;;;;;;;10.25;1.25;;;10.90;99.90;;;;;;5076406;28;20056;-60
2022/09/16 03:04:09;;;;;;;6.95;1.30;;;10.90;99.90;;;;;;5094785;28;20032;-60
2022/09/16 03:06:35;;;;;;;6.60;1.33;;;10.80;99.90;;;;;;5077200;28;20049;-60
2022/09/16 03:09:05;;;;;;;8.35;1.25;;;11.00;99.90;;;;;;5076677;28;20047;-61
2022/09/16 03:11:57;;;;;;;9.73;1.50;;;11.00;99.90;;;;;;5094491;28;20032;-61
2022/09/16 03:14:57;;;;;;;7.38;1.48;;;11.00;99.90;;;;;;5094631;28;20380;-61
2022/09/16 03:17:45;;;;;;;10.82;2.08;;;10.80;99.90;;;;;;5021435;28;20403;-60
2022/09/16 03:20:47;;;;;;;9.02;1.40;;;10.80;99.90;;;;;;5094226;28;20040;-60
2022/09/16 03:23:13;;;;;;;;;;;11.00;99.90;;;;;;5076503;28;20048;-60
2022/09/16 03:25:57;;;;;;;10.63;1.40;;;10.70;99.90;;;;;;5094143;28;20360;-61
2022/09/16 03:28:41;;;;;;;11.02;1.52;;;10.80;99.90;;;;;;5075331;28;20068;-60
2022/09/16 03:31:25;;;;;;;10.75;1.45;;;10.50;99.90;;;;;;5094303;28;20040;-60
2022/09/16 03:34:11;;;;;;;8.52;1.30;;;10.50;99.90;;;;;;5094023;28;20040;-61
2022/09/16 03:36:42;;;;;;;10.73;1.20;;;10.40;99.90;;;;;;5094039;28;20036;-60
2022/09/16 03:39:10;;;;;;;9.35;1.42;;;10.40;99.90;;;;;;5093755;28;20093;-58
2022/09/16 03:41:37;;;;;;;10.32;1.50;;;10.50;99.90;;;;;;5093732;28;20093;-60
2022/09/16 03:44:03;;;;;;;11.68;2.00;;;10.30;99.90;;;;;;5094028;28;20044;-61
2022/09/16 03:46:29;;;;;;;10.13;1.52;;;10.40;99.90;;;;;;5093934;28;20499;-60
2022/09/16 03:48:56;;;;;;;15.65;2.33;;;10.30;99.90;;;;;;5093732;28;20058;-60
2022/09/16 03:51:22;;;;;;;10.13;1.52;;;10.20;99.90;;;;;;5093420;28;20036;-60
2022/09/16 03:53:49;;;;;;;9.93;1.42;;;10.30;99.90;;;;;;5093893;28;20044;-60
2022/09/16 03:56:15;;;;;;;9.70;1.50;;;10.20;99.90;;;;;;5093714;28;20395;-61
2022/09/16 03:58:41;;;;;;;9.80;1.27;;;10.30;99.90;;;;;;5093545;28;20039;-61
2022/09/16 04:01:06;;;;;;;8.75;1.58;;;10.40;99.90;;;;;;5075257;28;20036;-61
2022/09/16 04:03:32;;;;;;;11.35;2.45;;;10.30;99.90;;;;;;5093409;28;20044;-60
2022/09/16 04:05:58;;;;;;;10.63;1.70;;;10.20;99.90;;;;;;5093269;28;20032;-60
2022/09/16 04:08:24;;;;;;;10.30;1.63;;;9.90;99.90;;;;;;5093475;28;20044;-60
2022/09/16 04:11:01;;;;;;;15.20;1.83;;;9.80;99.90;;;;;;5093543;28;20395;-60
2022/09/16 04:13:32;;;;;;;7.25;2.15;;;10.10;99.90;;;;;;5058251;28;20483;-60
2022/09/16 04:15:58;;;;;;;9.38;1.50;;;10.00;99.90;;;;;;5093077;28;20036;-60
2022/09/16 04:18:24;;;;;;;9.40;1.67;;;10.00;99.90;;;;;;5074985;28;20040;-61
2022/09/16 04:20:55;;;;;;;9.18;1.52;;;10.00;99.90;;;;;;5075217;28;20046;-60
2022/09/16 04:23:27;;;;;;;10.55;1.50;;;10.00;99.90;;;;;;5093163;28;20050;-60
2022/09/16 04:25:57;;;;;;;11.23;2.22;;;10.00;99.90;;;;;;5093209;28;20051;-60
2022/09/16 04:28:24;;;;;;;13.60;2.45;;;10.00;99.90;;;;;;5092912;28;20040;-60
2022/09/16 04:30:50;;;;;;;11.90;2.10;;;10.00;99.90;;;;;;5092993;28;20039;-60
2022/09/16 04:33:15;;;;;;;7.05;1.67;;;9.80;99.90;;;;;;5092619;28;20028;-60
2022/09/16 04:35:41;;;;;;;6.78;1.48;;;10.00;99.90;;;;;;5093062;28;20503;-60
2022/09/16 04:38:07;;;;;;;11.52;2.05;;;10.00;99.90;;;;;;5092826;28;20518;-60
2022/09/16 04:40:32;;;;;;;8.02;1.50;;;9.90;99.90;;;;;;5092715;28;20032;-60
2022/09/16 04:42:58;;;;;;;12.27;1.15;;;9.90;99.90;;;;;;5092718;28;20368;-61
2022/09/16 04:45:23;;;;;;;9.90;1.70;;;10.00;99.90;;;;;;5092714;28;20142;-61
2022/09/16 04:47:56;;;;;;;8.00;1.60;;;9.90;99.90;;;;;;5092512;28;20051;-60
2022/09/16 04:50:22;;;;;;;9.30;1.13;;;9.90;99.90;;;;;;5092595;28;20083;-60
2022/09/16 04:52:50;;;;;;;6.32;1.48;;;10.00;99.90;;;;;;5092221;28;20575;-60
2022/09/16 04:55:17;;;;;;;9.00;1.38;;;10.10;99.90;;;;;;5092575;28;20071;-61
2022/09/16 04:57:42;;;;;;;11.30;1.40;;;10.00;99.90;;;;;;5092496;28;20572;-61
2022/09/16 05:00:09;;;;;;;13.63;1.52;;;10.00;99.90;;;;;;5092824;28;20072;-61
2022/09/16 05:02:34;;;;;;;12.40;1.50;;;10.10;99.90;;;;;;5092349;28;20576;-60
2022/09/16 05:05:00;;;;;;;9.35;1.35;;;10.20;99.90;;;;;;5092323;28;20040;-60
2022/09/16 05:07:28;;;;;;;9.35;2.15;;;10.40;99.90;;;;;;5074260;28;20097;-60
2022/09/16 05:09:54;;;;;;;6.80;1.40;;;10.40;99.90;;;;;;5092379;28;20059;-60
2022/09/16 05:12:19;;;;;;;9.80;1.52;;;10.30;99.90;;;;;;5074289;28;20040;-61
2022/09/16 05:14:45;;;;;;;10.13;1.35;;;10.30;99.90;;;;;;5092159;28;20044;-60
2022/09/16 05:17:11;;;;;;;13.68;2.17;;;10.20;99.90;;;;;;5092132;28;20395;-61
2022/09/16 05:19:37;;;;;;;9.63;1.73;;;10.10;99.90;;;;;;5092086;28;20043;-60
2022/09/16 05:22:06;;;;;;;12.05;1.70;;;10.10;99.90;;;;;;5092356;28;20063;-61
2022/09/16 05:24:35;;;;;;;10.23;1.50;;;10.10;99.90;;;;;;5092190;28;20040;-60
2022/09/16 05:27:01;;;;;;;10.90;1.63;;;10.10;99.90;;;;;;5074061;28;20040;-61
2022/09/16 05:29:26;;;;;;;8.80;1.30;;;10.20;99.90;;;;;;5091295;28;20051;-60
2022/09/16 05:31:52;;;;;;;14.50;1.55;;;10.20;99.90;;;;;;5092247;28;20415;-60
2022/09/16 05:34:20;;;;;;;14.75;1.60;;;10.40;99.90;;;;;;5092281;28;20087;-61
2022/09/16 05:36:48;;;;;;;8.98;1.70;;;10.50;99.90;;;;;;5092113;28;20059;-60
2022/09/16 05:39:17;;;;;;;10.65;1.40;;;10.40;99.90;;;;;;5091776;28;20082;-60
2022/09/16 05:41:43;;;;;;;12.40;1.30;;;10.40;99.90;;;;;;5091837;28;20040;-60
2022/09/16 05:44:09;;;;;;;14.88;1.67;;;10.50;99.90;;;;;;5073878;28;20123;-60
2022/09/16 05:46:35;;;;;;;7.32;1.27;;;10.50;99.90;;;;;;5092127;28;20082;-61
2022/09/16 05:49:01;;;;;;;11.98;1.55;;;10.30;99.90;;;;;;5091850;28;20052;-60
2022/09/16 05:51:27;;;;;;;10.52;1.50;;;10.40;99.90;;;;;;5091825;28;20044;-61
2022/09/16 05:53:54;;;;;;;11.85;1.73;;;10.40;99.90;;;;;;5077480;28;20110;-61
2022/09/16 05:56:25;;;;;;;10.10;1.73;;;10.40;99.90;;;;;;5095949;28;20036;-61
2022/09/16 05:58:55;;;;;;;9.02;1.35;;;10.50;99.90;;;;;;5096069;28;20118;-60
2022/09/16 06:01:23;;;;;;;11.75;1.65;;;10.40;99.90;;;;;;5095986;28;20055;-61
2022/09/16 06:03:50;;;;;;;11.80;1.73;;;10.30;99.90;;;;;;5095892;28;20051;-63
2022/09/16 06:06:25;;;;;;;8.70;1.60;;;10.40;99.90;;;;;;5077639;28;20055;-60
2022/09/16 06:08:52;;;;;;;9.20;1.42;;;10.30;99.90;;;;;;5077676;28;20403;-61
2022/09/16 06:11:19;;;;;;;8.18;1.52;;;10.30;99.90;;;;;;5096986;28;20043;-61
2022/09/16 06:13:44;;;;;;;13.07;3.33;;;10.30;99.90;;;;;;5095618;28;20032;-61
2022/09/16 06:16:10;;;;;;;14.32;1.90;;;10.30;99.90;;;;;;5095633;28;20565;-60
2022/09/16 06:18:37;;;;;;;11.25;2.20;;;10.30;99.90;;;;;;5095618;28;20044;-60
2022/09/16 06:21:06;;;;;;;10.77;1.60;;;10.40;99.90;;;;;;5060729;28;20032;-61
2022/09/16 06:23:32;;;;;;;9.70;1.20;;;10.30;99.90;;;;;;5095229;28;20492;-61
2022/09/16 06:26:18;;;;;;;9.32;1.35;;;10.40;99.90;;;;;;5095393;28;20081;-61
2022/09/16 06:28:44;;;;;;;11.93;2.13;;;10.50;99.90;;;;;;5095114;28;20040;-61
2022/09/16 06:31:16;;;;;;;11.27;1.48;;;10.70;99.90;;;;;;5095256;28;20046;-60
2022/09/16 06:33:42;;;;;;;9.17;1.53;;;10.70;99.90;;;;;;5095084;28;20090;-61
2022/09/16 06:36:09;;;;;;;10.02;1.30;;;10.80;99.90;;;;;;5077096;28;20293;-61
2022/09/16 06:38:35;;;;;;;12.40;2.55;;;11.10;99.90;;;;;;5095209;28;20036;-61
2022/09/16 06:41:04;;;;;;;9.68;1.58;;;11.20;99.90;;;;;;5095069;28;20078;-60
2022/09/16 06:43:29;;;;;;;8.38;1.20;;;11.20;99.90;;;;;;5094889;28;20047;-61
2022/09/16 06:46:19;;;;;;;9.68;1.90;;;11.30;99.90;;;;;;5095039;28;20040;-61
2022/09/16 06:48:49;;;;;;;13.30;1.92;;;11.40;99.90;;;;;;5095206;28;20048;-61
2022/09/16 06:51:17;;;;;;;10.07;1.50;;;11.60;99.90;;;;;;5095056;28;20044;-60
2022/09/16 06:53:44;;;;;;;8.38;1.30;;;11.60;99.90;;;;;;5094888;28;20097;-61
2022/09/16 06:56:12;;;;;;;10.10;1.85;;;11.70;99.90;;;;;;5094786;28;20036;-60
2022/09/16 06:58:42;;;;;;;12.43;1.88;;;11.80;99.90;;;;;;5094651;28;20039;-60
2022/09/16 07:01:11;;;;;;;10.30;1.60;;;11.90;99.90;;;;;;5094516;28;20085;-61
2022/09/16 07:03:38;;;;;;;9.13;1.55;;;11.80;99.90;;;;;;5093353;28;20043;-61
2022/09/16 07:06:04;;;;;;;9.80;1.65;;;11.90;99.90;;;;;;5094708;28;20119;-61
2022/09/16 07:08:31;;;;;;;9.80;1.38;;;11.90;99.90;;;;;;5094635;28;20428;-61
2022/09/16 07:10:57;;;;;;;12.10;1.70;;;12.00;99.90;;;;;;5076372;28;20541;-61
2022/09/16 07:13:23;;;;;;;12.23;2.17;;;12.10;99.90;;;;;;5094294;28;20043;-61
2022/09/16 07:15:49;;;;;;;8.77;1.38;;;12.30;99.90;;;;;;5094282;28;20044;-61
2022/09/16 07:18:14;;;;;;;11.40;1.83;;;12.50;99.90;;;;;;5094192;28;20396;-60
2022/09/16 07:20:40;;;;;;;10.13;1.33;;;12.70;99.90;;;;;;5094465;28;20463;-61
2022/09/16 07:23:05;;;;;;;8.80;1.77;;;12.70;99.90;;;;;;5094401;28;20446;-61
2022/09/16 07:25:31;;;;;;;9.80;1.50;;;12.90;99.90;;;;;;5094626;28;20459;-60
2022/09/16 07:27:57;;;;;;;14.48;2.92;;;12.90;99.90;;;;;;5094168;28;20407;-61
2022/09/16 07:30:22;;;;;;;10.20;1.83;;;13.00;99.90;;;;;;5094003;28;20495;-61
2022/09/16 07:32:48;;;;;;;10.70;1.40;;;13.10;99.90;;;;;;5076017;28;20043;-61
2022/09/16 07:35:14;;;;;;;9.85;1.73;;;13.30;99.90;;;;;;5076028;28;20055;-61
2022/09/16 07:37:40;;;;;;;9.93;1.45;;;13.50;99.90;;;;;;5093703;28;20533;-60
2022/09/16 07:40:06;;;;;;;15.25;1.73;;;13.40;99.90;;;;;;5093825;28;20036;-60
2022/09/16 07:42:32;;;;;;;10.43;1.98;;;13.20;99.90;;;;;;5093799;28;20054;-61
2022/09/16 07:44:57;;;;;;;13.13;2.05;;;13.10;99.90;;;;;;5075615;28;20036;-61
2022/09/16 07:47:23;;;;;;;12.57;2.00;;;12.90;99.90;;;;;;5093916;28;20114;-61
2022/09/16 07:49:54;;;;;;;14.77;3.00;;;12.90;99.90;;;;;;5093829;28;20377;-60
2022/09/16 07:52:21;;;;;;;12.38;1.67;;;12.90;99.90;;;;;;5093471;28;20131;-60
2022/09/16 07:54:49;;;;;;;10.35;1.98;;;12.80;99.90;;;;;;5093603;28;20039;-60
2022/09/16 07:57:15;;;;;;;14.82;2.22;;;12.80;99.90;;;;;;5093502;28;20072;-61
2022/09/16 07:59:40;;;;;;;14.07;2.15;;;12.80;99.90;;;;;;5093740;28;20471;-61
2022/09/16 08:02:06;;;;;;;18.10;2.58;;;12.90;99.90;;;;;;5075310;28;20039;-60
2022/09/16 08:04:31;;;;;;;16.60;2.55;;;13.10;99.90;;;;;;5093597;28;20071;-61
2022/09/16 08:06:57;;;;;;;14.23;2.35;;;13.20;99.90;;;;;;5075217;28;20048;-59
2022/09/16 08:09:23;;;;;;;14.50;2.00;;;13.50;99.90;;;;;;5075264;28;20043;-60
2022/09/16 08:11:49;;;;;;;9.57;1.55;;;13.60;99.90;;;;;;5093217;28;20040;-61
2022/09/16 08:14:15;;;;;;;14.30;2.22;;;13.80;99.90;;;;;;5093414;28;20515;-61
2022/09/16 08:16:40;;;;;;;11.32;1.40;;;14.00;99.90;;;;;;5093070;28;20050;-61
2022/09/16 08:19:06;;;;;;;6.43;1.38;;;14.10;99.90;;;;;;5093189;28;20434;-61
2022/09/16 08:21:32;;;;;;;10.77;1.67;;;14.20;99.90;;;;;;5093206;28;20044;-61
2022/09/16 08:23:57;;;;;;;11.48;1.60;;;14.30;99.90;;;;;;5093159;28;20063;-60
2022/09/16 08:26:23;;;;;;;14.10;2.30;;;14.30;99.90;;;;;;5092965;28;20040;-60
2022/09/16 08:28:49;;;;;;;8.02;2.08;;;14.50;99.90;;;;;;5093007;28;20042;-61
2022/09/16 08:31:16;;;;;;;9.52;1.40;;;14.50;99.90;;;;;;5092762;28;20084;-61
2022/09/16 08:33:42;;;;;;;8.50;1.52;;;14.60;99.90;;;;;;5092863;28;20040;-60
2022/09/16 08:36:18;;;;;;;9.43;1.30;;;14.60;99.90;;;;;;5074749;28;20036;-61
2022/09/16 08:38:45;;;;;;;8.82;1.63;;;14.70;99.90;;;;;;5092676;28;20096;-61
2022/09/16 08:41:38;;;;;;;8.57;2.00;;;14.80;99.90;;;;;;5074428;28;20089;-61
2022/09/16 08:44:23;;;;;;;9.77;1.60;;;14.80;99.90;;;;;;5092592;28;20071;-61
2022/09/16 08:46:56;;;;;;;8.52;1.45;;;14.90;99.90;;;;;;5092551;28;20093;-61
2022/09/16 08:49:43;;;;;;;10.65;1.95;;;15.00;99.90;;;;;;5092403;28;20072;-61
2022/09/16 08:52:30;;;;;;;7.18;1.55;;;15.10;99.90;;;;;;5092362;28;20052;-61
2022/09/16 08:55:05;;;;;;;11.50;1.90;;;14.80;99.90;;;;;;5092597;28;20072;-61
2022/09/16 08:57:38;;;;;;;10.48;1.83;;;14.60;99.90;;;;;;5074437;28;20070;-60
2022/09/16 09:00:11;;;;;;;11.98;2.08;;;14.60;99.90;;;;;;5092660;28;20173;-61
2022/09/16 09:02:56;;;;;;;14.45;2.90;;;14.60;99.90;;;;;;5092556;28;20032;-65
2022/09/16 09:05:39;;;;;;;13.25;1.80;;;14.80;99.90;;;;;;5092342;28;20039;-60
2022/09/16 09:08:31;;;;;;;12.32;2.33;;;15.00;99.90;;;;;;5092165;28;20044;-61
2022/09/16 09:11:15;;;;;;;10.65;1.92;;;15.20;99.90;;;;;;5092449;28;20399;-61
2022/09/16 09:13:46;;;;;;;13.63;1.80;;;14.90;99.90;;;;;;5092699;28;20052;-61
2022/09/16 09:16:45;;;;;;;10.15;1.77;;;14.70;99.90;;;;;;5092738;28;20440;-61
2022/09/16 09:19:35;;;;;;;9.32;2.05;;;14.50;99.90;;;;;;5092041;28;20561;-61
2022/09/16 09:22:24;;;;;;;14.68;1.98;;;14.30;99.90;;;;;;5092249;28;20391;-61
2022/09/16 09:25:09;;;;;;;11.35;1.65;;;14.50;99.90;;;;;;5091981;28;20139;-61
2022/09/16 09:27:46;;;;;;;9.95;2.05;;;14.60;99.90;;;;;;5091480;28;20040;-61
2022/09/16 09:30:19;;;;;;;10.00;1.77;;;14.80;99.90;;;;;;5092092;28;20127;-61
2022/09/16 09:33:13;;;;;;;12.07;1.60;;;15.00;99.90;;;;;;5091969;28;20040;-61
2022/09/16 09:36:15;;;;;;;8.85;1.75;;;15.20;99.90;;;;;;5074249;28;20055;-60
2022/09/16 09:38:56;;;;;;;8.90;1.27;;;15.30;99.90;;;;;;5091984;28;20089;-61
2022/09/16 09:41:38;;;;;;;10.93;1.63;;;15.20;99.90;;;;;;5082171;28;20044;-61
2022/09/16 09:44:40;;;;;;;10.00;1.50;;;15.40;99.90;;;;;;5092129;28;20048;-61
2022/09/16 09:47:14;;;;;;;10.43;1.50;;;15.30;99.90;;;;;;5092026;28;20680;-61
2022/09/16 09:49:50;;;;;;;9.18;1.40;;;15.40;99.90;;;;;;5091797;28;20123;-60
2022/09/16 09:52:22;;;;;;;10.50;1.30;;;15.40;99.90;;;;;;5073678;28;20056;-61
2022/09/16 09:54:49;;;;;;;11.65;2.17;;;15.70;99.90;;;;;;5074016;28;20072;-61
2022/09/16 09:57:28;;;;;;;11.73;1.77;;;15.80;99.90;;;;;;5091873;28;20123;-61
2022/09/16 10:00:13;;;;;;;11.15;1.90;;;15.30;99.90;;;;;;5091680;28;20044;-61
2022/09/16 10:02:42;;;;;;;10.25;1.63;;;15.00;99.90;;;;;;5091939;28;20105;-61
2022/09/16 10:05:26;;;;;;;10.75;2.28;;;14.70;99.90;;;;;;5091815;28;20061;-61
2022/09/16 10:07:57;;;;;;;12.57;1.80;;;15.00;99.90;;;;;;5091646;28;20503;-60
2022/09/16 10:10:25;;;;;;;11.43;1.73;;;15.40;99.90;;;;;;5091756;28;20078;-60
2022/09/16 10:12:51;;;;;;;12.45;1.70;;;15.60;99.90;;;;;;5091625;28;20085;-61
2022/09/16 10:15:27;;;;;;;10.25;2.00;;;15.70;99.90;;;;;;5091824;28;20572;-61
2022/09/16 10:17:54;;;;;;;10.15;1.45;;;15.70;99.90;;;;;;5091725;28;20123;-61
2022/09/16 10:20:33;;;;;;;10.63;1.77;;;15.90;99.90;;;;;;5091605;28;20046;-61
2022/09/16 10:23:04;;;;;;;9.48;1.60;;;15.10;99.90;;;;;;5091563;28;20118;-60
2022/09/16 10:25:31;;;;;;;9.27;1.30;;;14.80;99.90;;;;;;5091530;28;20040;-59
2022/09/16 10:28:00;;;;;;;8.77;1.27;;;14.80;99.90;;;;;;5091491;28;20047;-60
2022/09/16 10:30:44;;;;;;;11.77;3.00;;;15.00;99.90;;;;;;5091626;28;20108;-60
2022/09/16 10:33:24;;;;;;;11.68;1.50;;;14.90;99.90;;;;;;5091272;28;20072;-60
2022/09/16 10:36:18;;;;;;;10.88;2.20;;;14.90;99.90;;;;;;5091425;28;20028;-61
2022/09/16 10:38:51;;;;;;;6.90;1.30;;;15.10;99.90;;;;;;5091043;28;20109;-60
2022/09/16 10:41:22;;;;;;;10.50;1.80;;;15.40;99.90;;;;;;5095042;28;20444;-61
2022/09/16 10:43:55;;;;;;;9.30;1.30;;;15.40;99.90;;;;;;5094929;28;20039;-60
2022/09/16 10:46:21;;;;;;;8.50;1.15;;;15.60;99.90;;;;;;5094992;28;20040;-61
2022/09/16 10:48:48;;;;;;;11.32;1.90;;;15.80;99.90;;;;;;5094798;28;20396;-60
2022/09/16 10:51:26;;;;;;;13.70;1.75;;;15.90;99.90;;;;;;5094957;28;20036;-61
2022/09/16 10:53:57;;;;;;;8.48;1.73;;;16.10;99.90;;;;;;5094582;28;20066;-60
2022/09/16 10:56:28;;;;;;;13.65;2.08;;;15.90;99.90;;;;;;5094666;28;20472;-61
2022/09/16 10:59:14;;;;;;;12.23;1.83;;;15.80;99.90;;;;;;5095012;28;20036;-61
2022/09/16 11:01:57;;;;;;;13.75;1.77;;;15.90;99.90;;;;;;5094809;28;20040;-61
2022/09/16 11:04:28;;;;;;;10.30;1.67;;;15.80;99.90;;;;;;5094730;28;20036;-61
2022/09/16 11:07:00;;;;;;;10.68;1.98;;;15.70;99.90;;;;;;5095109;28;20044;-61
2022/09/16 11:09:33;;;;;;;;;;;15.50;99.90;;;;;;5095162;28;20048;-61
2022/09/16 11:12:31;;;;;;;13.57;2.15;;;15.60;99.90;;;;;;5094637;28;20409;-61
2022/09/16 11:14:57;;;;;;;9.20;1.63;;;15.70;99.90;;;;;;5071069;28;20059;-60
2022/09/16 11:18:00;;;;;;;11.50;1.80;;;15.60;99.90;;;;;;5094310;28;20093;-61
2022/09/16 11:20:31;;;;;;;11.80;2.42;;;15.50;99.90;;;;;;5094383;28;20028;-60
2022/09/16 11:23:33;;;;;;;10.73;1.80;;;15.70;99.90;;;;;;5094214;28;20583;-61
2022/09/16 11:26:06;;;;;;;15.88;2.15;;;15.80;99.90;;;;;;5094427;28;20044;-61
2022/09/16 11:29:02;;;;;;;12.60;2.28;;;15.90;99.90;;;;;;5076280;28;20380;-60
2022/09/16 11:31:31;;;;;;;15.23;2.22;;;15.90;99.90;;;;;;5076076;28;20487;-61
2022/09/16 11:34:09;;;;;;;17.20;2.17;;;16.00;99.90;;;;;;5093814;28;20048;-61
2022/09/16 11:36:44;;;;;;;12.52;2.70;;;16.10;99.90;;;;;;5092901;28;20076;-60
2022/09/16 11:39:12;;;;;;;11.70;3.38;;;16.00;99.90;;;;;;5093705;28;20036;-60
2022/09/16 11:41:49;;;;;;;12.65;2.20;;;16.20;99.90;;;;;;5093904;28;20036;-61
2022/09/16 11:44:24;;;;;;;12.65;1.92;;;16.30;99.90;;;;;;5094079;28;20043;-61
2022/09/16 11:46:50;;;;;;;12.10;1.88;;;16.20;99.90;;;;;;5075943;28;20098;-61
2022/09/16 11:49:51;;;;;;;12.57;2.15;;;16.20;99.90;;;;;;5093346;28;20040;-60
2022/09/16 11:52:40;;;;;;;14.38;2.45;;;16.10;99.90;;;;;;4991534;28;20046;-61
2022/09/16 11:55:33;;;;;;;12.85;2.33;;;16.30;99.90;;;;;;5081410;28;20051;-61
2022/09/16 11:58:09;;;;;;;15.95;2.45;;;16.30;99.90;;;;;;5093580;28;20121;-62
2022/09/16 12:00:38;;;;;;;16.90;2.28;;;16.20;99.90;;;;;;5093621;28;20526;-63
2022/09/16 12:03:13;;;;;;;16.23;3.05;;;15.90;99.90;;;;;;5093540;28;20081;-63
2022/09/16 12:05:41;;;;;;;14.77;2.47;;;16.00;99.90;;;;;;5093313;28;20080;-61
2022/09/16 12:08:13;;;;;;;15.00;3.50;;;15.90;99.90;;;;;;5093427;28;20048;-61
2022/09/16 12:10:38;;;;;;;;;;;15.70;99.90;;;;;;5093896;28;20035;-61
2022/09/16 12:13:14;;;;;;;12.73;2.85;;;15.70;99.90;;;;;;5075125;28;20372;-61
2022/09/16 12:15:57;;;;;;;13.68;2.40;;;15.70;99.90;;;;;;5093105;28;20119;-60
2022/09/16 12:18:50;;;;;;;13.23;2.20;;;15.80;99.90;;;;;;5093318;28;20391;-60
2022/09/16 12:21:25;;;;;;;14.52;2.45;;;15.80;99.90;;;;;;5093048;28;20043;-60
2022/09/16 12:23:58;;;;;;;14.60;2.65;;;15.80;99.90;;;;;;5093118;28;20507;-60
2022/09/16 12:26:29;;;;;;;15.75;2.40;;;15.80;99.90;;;;;;5093207;28;20040;-60
2022/09/16 12:29:04;;;;;;;11.73;1.90;;;16.00;99.90;;;;;;5074561;28;20071;-60
2022/09/16 12:31:39;;;;;;;16.38;2.97;;;15.90;99.90;;;;;;5092218;28;20044;-61
2022/09/16 12:34:14;;;;;;;11.88;2.42;;;15.90;99.90;;;;;;5091865;28;20051;-61
2022/09/16 12:36:48;;;;;;;12.98;1.90;;;15.50;99.90;;;;;;5092240;28;20044;-61
2022/09/16 12:39:14;;;;;;;8.98;1.65;;;15.20;99.90;;;;;;5092445;28;20048;-61
2022/09/16 12:41:43;;;;;;;8.48;1.40;;;15.00;99.90;;;;;;5091516;28;20032;-61
2022/09/16 12:44:39;;;;;;;16.60;2.55;;;15.00;99.90;;;;;;5092519;28;20152;-61
2022/09/16 12:47:16;;;;;;;11.48;1.75;;;14.90;99.90;;;;;;5092230;28;20089;-61
2022/09/16 12:50:16;;;;;;;12.50;2.22;;;14.90;99.90;;;;;;5092393;28;20043;-61
2022/09/16 12:53:27;;;;;;;9.93;1.75;;;15.00;99.90;;;;;;5092364;28;20492;-61
2022/09/16 12:56:03;;;;;;;7.47;1.20;;;14.90;99.90;;;;;;5092253;28;20408;-61
2022/09/16 12:58:51;;;;;;;7.53;1.00;;;14.80;99.90;;;;;;5092554;28;20530;-61
2022/09/16 13:01:20;;;;;;;7.43;1.50;;;14.90;99.90;;;;;;5101030;28;20040;-59
2022/09/16 13:03:55;;;;;;;9.88;1.10;;;14.90;99.90;;;;;;5112942;28;20445;-61
2022/09/16 13:06:28;;;;;;;6.57;1.02;;;14.80;99.90;;;;;;5094551;28;20042;-61
2022/09/16 13:08:54;;;;;;;5.97;0.98;;;14.60;99.90;;;;;;5112625;28;20096;-61
2022/09/16 13:11:23;;;;;;;9.30;1.30;;;14.30;99.90;;;;;;5094478;28;20447;-61
2022/09/16 13:13:57;;;;;;;5.78;1.10;;;13.40;99.90;;;;;;5112489;28;20479;-61